createdAt,value
2019-04-27T00:00:55.296Z,35.10
2019-04-27T00:01:54.528Z,35.50
2019-04-27T00:02:48.737Z,32.40
2019-04-27T00:03:41.194Z,41.17
2019-04-27T00:04:26.919Z,35.43
2019-04-27T00:05:32.062Z,34.30
2019-04-27T00:06:10.729Z,36.60
2019-04-27T00:06:47.936Z,35.33
2019-04-27T00:07:40.520Z,38.67
2019-04-27T00:08:48.945Z,42.03
2019-04-27T00:09:31.881Z,33.73
2019-04-27T00:10:20.429Z,37.63
2019-04-27T00:11:13.846Z,34.13
2019-04-27T00:12:05.698Z,38.80
2019-04-27T00:12:43.139Z,37.33
2019-04-27T00:13:22.971Z,38.08
2019-04-27T00:14:00.693Z,46.43
2019-04-27T00:14:38.750Z,40.97
2019-04-27T00:15:31.344Z,45.83
2019-04-27T00:16:35.706Z,40.80
2019-04-27T00:17:45.888Z,38.33
2019-04-27T00:18:31.341Z,42.00
2019-04-27T00:19:35.394Z,45.48
2019-04-27T00:20:43.475Z,47.53
2019-04-27T00:21:26.585Z,36.70
2019-04-27T00:22:10.433Z,38.78
2019-04-27T00:22:53.493Z,45.43
2019-04-27T00:23:30.825Z,36.60
2019-04-27T00:24:08.715Z,44.88
2019-04-27T00:24:46.239Z,42.33
2019-04-27T00:25:23.458Z,41.93
2019-04-27T00:26:03.041Z,41.25
2019-04-27T00:26:40.881Z,42.67
2019-04-27T00:27:18.585Z,44.87
2019-04-27T00:27:57.587Z,42.80
2019-04-27T00:28:35.344Z,44.73
2019-04-27T00:29:13.694Z,39.00
2019-04-27T00:29:54.145Z,39.73
2019-04-27T00:30:40.288Z,40.43
2019-04-27T00:31:17.649Z,45.60
2019-04-27T00:31:55.801Z,42.80
2019-04-27T00:32:33.695Z,42.07
2019-04-27T00:33:10.680Z,49.47
2019-04-27T00:33:48.495Z,47.15
2019-04-27T00:34:25.953Z,38.47
2019-04-27T00:35:03.868Z,41.35
2019-04-27T00:35:47.182Z,42.67
2019-04-27T00:36:35.094Z,43.48
2019-04-27T00:37:34.003Z,42.80
2019-04-27T00:38:20.256Z,48.95
2019-04-27T00:39:14.807Z,49.00
2019-04-27T00:40:03.369Z,42.07
2019-04-27T00:40:49.062Z,43.78
2019-04-27T00:41:26.580Z,44.80
2019-04-27T00:42:04.863Z,43.17
2019-04-27T00:42:43.979Z,38.90
2019-04-27T00:43:22.546Z,43.40
2019-04-27T00:43:59.925Z,41.93
2019-04-27T00:44:37.521Z,44.40
2019-04-27T00:45:15.468Z,47.23
2019-04-27T00:45:54.510Z,46.10
2019-04-27T00:46:33.071Z,38.43
2019-04-27T00:47:10.711Z,53.53
2019-04-27T00:47:57.430Z,44.00
2019-04-27T00:48:27.257Z,46.83
2019-04-27T00:49:04.731Z,43.17
2019-04-27T00:49:41.824Z,44.27
2019-04-27T00:50:18.805Z,38.20
2019-04-27T00:50:56.297Z,45.03
2019-04-27T00:51:33.379Z,39.03
2019-04-27T00:52:10.331Z,43.30
2019-04-27T00:52:47.733Z,44.30
2019-04-27T00:53:33.511Z,45.15
2019-04-27T00:54:13.594Z,48.00
2019-04-27T00:54:51.025Z,45.57
2019-04-27T00:55:29.011Z,39.57
2019-04-27T00:56:23.624Z,40.97
2019-04-27T00:57:24.528Z,49.27
2019-04-27T00:58:16.729Z,42.07
2019-04-27T00:59:23.408Z,42.17
2019-04-27T01:00:19.640Z,42.37
2019-04-27T01:01:23.366Z,38.27
2019-04-27T01:02:10.990Z,49.53
2019-04-27T01:02:54.927Z,41.00
2019-04-27T01:03:47.144Z,40.87
2019-04-27T01:04:26.388Z,43.63
2019-04-27T01:05:23.705Z,51.97
2019-04-27T01:05:59.932Z,41.53
2019-04-27T01:06:37.515Z,40.53
2019-04-27T01:07:15.045Z,41.47
2019-04-27T01:07:53.704Z,45.30
2019-04-27T01:08:31.641Z,44.33
2019-04-27T01:09:13.385Z,40.53
2019-04-27T01:09:52.729Z,45.47
2019-04-27T01:10:30.451Z,41.13
2019-04-27T01:11:08.549Z,46.03
2019-04-27T01:11:46.261Z,39.77
2019-04-27T01:12:23.795Z,48.07
2019-04-27T01:13:00.665Z,41.63
2019-04-27T01:13:38.125Z,38.33
2019-04-27T01:14:16.145Z,40.10
2019-04-27T01:14:53.748Z,40.10
2019-04-27T01:15:34.146Z,39.70
2019-04-27T01:16:14.669Z,55.00
2019-04-27T01:16:53.437Z,38.67
2019-04-27T01:17:30.582Z,35.60
2019-04-27T01:18:13.293Z,36.50
2019-04-27T01:18:46.653Z,35.93
2019-04-27T01:19:23.880Z,39.97
2019-04-27T01:20:01.314Z,44.10
2019-04-27T01:20:38.791Z,39.03
2019-04-27T01:21:16.287Z,41.15
2019-04-27T01:21:53.805Z,40.25
2019-04-27T01:22:31.346Z,38.53
2019-04-27T01:23:10.605Z,36.87
2019-04-27T01:23:48.770Z,45.30
2019-04-27T01:24:28.704Z,38.90
2019-04-27T01:25:08.671Z,38.45
2019-04-27T01:26:04.626Z,36.40
2019-04-27T01:27:00.560Z,40.57
2019-04-27T01:27:54.604Z,34.17
2019-04-27T01:28:35.238Z,38.90
2019-04-27T01:29:14.786Z,37.80
2019-04-27T01:29:52.630Z,33.53
2019-04-27T01:30:34.012Z,34.27
2019-04-27T01:31:13.080Z,36.00
2019-04-27T01:31:50.154Z,34.80
2019-04-27T01:32:29.166Z,32.60
2019-04-27T01:33:06.638Z,38.30
2019-04-27T01:33:44.011Z,34.10
2019-04-27T01:34:22.615Z,33.83
2019-04-27T01:35:02.300Z,28.50
2019-04-27T01:35:41.140Z,28.80
2019-04-27T01:36:19.935Z,34.93
2019-04-27T01:36:59.506Z,31.10
2019-04-27T01:37:38.685Z,29.83
2019-04-27T01:38:16.365Z,29.60
2019-04-27T01:38:54.605Z,24.10
2019-04-27T01:39:32.258Z,25.60
2019-04-27T01:40:09.811Z,29.50
2019-04-27T01:40:46.706Z,23.43
2019-04-27T01:41:24.197Z,20.03
2019-04-27T01:42:02.201Z,22.35
2019-04-27T01:42:39.893Z,21.80
2019-04-27T01:43:18.675Z,17.80
2019-04-27T01:43:56.146Z,19.53
2019-04-27T01:44:33.929Z,18.03
2019-04-27T01:45:12.283Z,21.40
2019-04-27T01:45:50.841Z,18.97
2019-04-27T01:46:29.544Z,22.40
2019-04-27T01:47:08.353Z,22.10
2019-04-27T01:47:46.443Z,19.83
2019-04-27T01:48:25.871Z,21.60
2019-04-27T01:49:03.139Z,16.70
2019-04-27T01:49:41.015Z,16.90
2019-04-27T01:50:19.533Z,15.93
2019-04-27T01:50:56.634Z,16.60
2019-04-27T01:51:33.879Z,19.53
2019-04-27T01:52:11.057Z,17.77
2019-04-27T01:52:50.321Z,20.77
2019-04-27T01:53:28.609Z,20.77
2019-04-27T01:54:10.385Z,19.53
2019-04-27T01:54:49.561Z,17.73
2019-04-27T01:55:27.150Z,15.80
2019-04-27T01:56:04.629Z,20.40
2019-04-27T01:56:42.105Z,18.00
2019-04-27T01:57:19.989Z,20.27
2019-04-27T01:58:00.063Z,24.03
2019-04-27T01:58:36.593Z,20.50
2019-04-27T01:59:14.605Z,21.35
2019-04-27T01:59:52.601Z,16.57
2019-04-27T02:01:01.281Z,15.10
2019-04-27T02:01:58.796Z,18.17
2019-04-27T02:02:42.461Z,18.73
2019-04-27T02:03:22.729Z,20.73
2019-04-27T02:04:23.113Z,19.93
2019-04-27T02:05:31.310Z,23.00
2019-04-27T02:06:09.194Z,26.33
2019-04-27T02:06:48.695Z,21.20
2019-04-27T02:07:26.707Z,29.97
2019-04-27T02:08:04.705Z,21.20
2019-04-27T02:08:41.928Z,22.50
2019-04-27T02:09:21.301Z,17.73
2019-04-27T02:09:58.929Z,18.90
2019-04-27T02:10:36.153Z,23.97
2019-04-27T02:11:13.851Z,23.20
2019-04-27T02:11:51.219Z,22.53
2019-04-27T02:12:31.973Z,21.43
2019-04-27T02:13:09.108Z,25.53
2019-04-27T02:13:46.546Z,26.73
2019-04-27T02:14:24.301Z,17.90
2019-04-27T02:15:01.383Z,20.53
2019-04-27T02:15:40.874Z,24.00
2019-04-27T02:16:18.756Z,27.40
2019-04-27T02:16:56.640Z,22.17
2019-04-27T02:17:33.787Z,22.20
2019-04-27T02:18:11.250Z,24.80
2019-04-27T02:18:48.926Z,25.60
2019-04-27T02:19:26.266Z,23.93
2019-04-27T02:20:04.310Z,28.97
2019-04-27T02:20:44.302Z,23.47
2019-04-27T02:21:21.101Z,28.60
2019-04-27T02:22:00.842Z,23.67
2019-04-27T02:22:38.484Z,22.87
2019-04-27T02:23:16.070Z,22.00
2019-04-27T02:23:53.216Z,23.80
2019-04-27T02:24:31.146Z,21.93
2019-04-27T02:25:09.094Z,20.20
2019-04-27T02:25:46.781Z,21.80
2019-04-27T02:26:24.521Z,24.30
2019-04-27T02:27:02.470Z,23.57
2019-04-27T02:27:41.389Z,19.67
2019-04-27T02:28:29.321Z,30.07
2019-04-27T02:29:29.085Z,18.00
2019-04-27T02:30:25.776Z,24.40
2019-04-27T02:31:24.624Z,18.55
2019-04-27T02:32:10.711Z,21.35
2019-04-27T02:33:12.645Z,22.37
2019-04-27T02:33:53.468Z,19.90
2019-04-27T02:34:33.549Z,24.12
2019-04-27T02:35:15.831Z,20.20
2019-04-27T02:35:55.419Z,22.32
2019-04-27T02:36:33.162Z,25.43
2019-04-27T02:37:14.055Z,28.90
2019-04-27T02:37:51.619Z,27.90
2019-04-27T02:38:30.547Z,22.15
2019-04-27T02:39:10.018Z,24.95
2019-04-27T02:39:49.810Z,23.10
2019-04-27T02:40:55.138Z,25.50
2019-04-27T02:41:33.243Z,24.55
2019-04-27T02:42:11.159Z,24.63
2019-04-27T02:42:50.383Z,28.55
2019-04-27T02:43:56.553Z,28.25
2019-04-27T02:44:40.218Z,23.47
2019-04-27T02:45:19.919Z,22.27
2019-04-27T02:45:56.697Z,23.62
2019-04-27T02:46:34.496Z,23.75
2019-04-27T02:47:11.371Z,22.90
2019-04-27T02:47:51.781Z,23.18
2019-04-27T02:48:29.836Z,27.13
2019-04-27T02:49:09.738Z,22.37
2019-04-27T02:49:46.351Z,23.80
2019-04-27T02:50:23.865Z,21.23
2019-04-27T02:51:04.276Z,21.75
2019-04-27T02:51:54.353Z,21.07
2019-04-27T02:52:44.808Z,20.43
2019-04-27T02:53:41.368Z,22.22
2019-04-27T02:54:20.432Z,23.32
2019-04-27T02:54:59.333Z,22.62
2019-04-27T02:55:39.495Z,20.25
2019-04-27T02:56:16.208Z,28.23
2019-04-27T02:56:53.577Z,23.77
2019-04-27T02:57:30.688Z,23.60
2019-04-27T02:58:10.021Z,21.07
2019-04-27T02:58:49.587Z,22.98
2019-04-27T02:59:30.041Z,19.63
2019-04-27T03:00:10.491Z,20.08
2019-04-27T03:00:50.189Z,20.30
2019-04-27T03:01:32.207Z,18.98
2019-04-27T03:02:30.378Z,17.83
2019-04-27T03:03:10.162Z,16.00
2019-04-27T03:03:50.203Z,20.17
2019-04-27T03:04:30.365Z,20.27
2019-04-27T03:05:12.701Z,21.65
2019-04-27T03:05:55.933Z,19.02
2019-04-27T03:06:34.120Z,26.57
2019-04-27T03:07:11.728Z,15.50
2019-04-27T03:07:50.305Z,19.40
2019-04-27T03:08:29.453Z,16.23
2019-04-27T03:09:11.247Z,22.50
2019-04-27T03:09:47.618Z,21.07
2019-04-27T03:10:29.639Z,21.05
2019-04-27T03:11:06.916Z,21.20
2019-04-27T03:11:44.570Z,19.07
2019-04-27T03:12:24.591Z,16.55
2019-04-27T03:13:14.989Z,17.67
2019-04-27T03:14:28.018Z,18.82
2019-04-27T03:14:56.868Z,18.90
2019-04-27T03:15:42.129Z,24.87
2019-04-27T03:16:39.567Z,17.77
2019-04-27T03:17:39.342Z,19.40
2019-04-27T03:18:32.828Z,21.27
2019-04-27T03:19:29.854Z,20.57
2019-04-27T03:20:13.072Z,23.47
2019-04-27T03:20:54.397Z,28.27
2019-04-27T03:21:50.995Z,23.62
2019-04-27T03:22:41.049Z,23.55
2019-04-27T03:23:19.980Z,24.80
2019-04-27T03:24:00.060Z,24.67
2019-04-27T03:24:54.787Z,27.02
2019-04-27T03:25:53.771Z,27.30
2019-04-27T03:26:50.077Z,25.32
2019-04-27T03:27:30.337Z,21.55
2019-04-27T03:28:11.977Z,23.62
2019-04-27T03:28:50.263Z,29.90
2019-04-27T03:29:30.462Z,25.63
2019-04-27T03:30:12.239Z,23.22
2019-04-27T03:30:52.050Z,28.80
2019-04-27T03:31:32.698Z,26.17
2019-04-27T03:32:12.514Z,24.05
2019-04-27T03:32:54.880Z,23.77
2019-04-27T03:33:32.575Z,27.20
2019-04-27T03:34:11.996Z,23.55
2019-04-27T03:34:52.295Z,26.97
2019-04-27T03:35:35.052Z,24.10
2019-04-27T03:36:07.367Z,25.92
2019-04-27T03:36:45.390Z,26.52
2019-04-27T03:37:23.301Z,21.52
2019-04-27T03:38:00.787Z,24.70
2019-04-27T03:38:40.293Z,27.58
2019-04-27T03:39:19.865Z,26.33
2019-04-27T03:40:00.172Z,24.75
2019-04-27T03:40:36.063Z,23.03
2019-04-27T03:41:13.238Z,29.90
2019-04-27T03:41:52.969Z,26.52
2019-04-27T03:42:31.563Z,27.82
2019-04-27T03:43:16.833Z,25.50
2019-04-27T03:43:54.009Z,28.32
2019-04-27T03:44:32.152Z,27.73
2019-04-27T03:45:10.955Z,27.00
2019-04-27T03:45:49.731Z,25.80
2019-04-27T03:46:30.137Z,25.90
2019-04-27T03:47:06.629Z,27.87
2019-04-27T03:47:44.361Z,26.87
2019-04-27T03:48:22.394Z,28.75
2019-04-27T03:49:00.271Z,29.92
2019-04-27T03:49:41.598Z,32.10
2019-04-27T03:50:21.588Z,26.50
2019-04-27T03:51:20.265Z,26.70
2019-04-27T03:52:04.406Z,28.20
2019-04-27T03:52:51.206Z,28.83
2019-04-27T03:53:33.849Z,27.43
2019-04-27T03:54:30.426Z,25.62
2019-04-27T03:55:15.183Z,27.05
2019-04-27T03:55:55.063Z,30.27
2019-04-27T03:56:41.500Z,30.27
2019-04-27T03:57:26.347Z,29.87
2019-04-27T03:58:15.915Z,34.18
2019-04-27T03:59:01.752Z,31.40
2019-04-27T03:59:59.385Z,29.25
2019-04-27T04:00:36.904Z,31.30
2019-04-27T04:01:15.099Z,34.35
2019-04-27T04:01:52.695Z,29.00
2019-04-27T04:02:30.789Z,32.30
2019-04-27T04:03:10.523Z,30.17
2019-04-27T04:03:49.709Z,36.85
2019-04-27T04:04:26.499Z,32.75
2019-04-27T04:05:04.545Z,30.13
2019-04-27T04:05:42.138Z,30.70
2019-04-27T04:06:23.030Z,33.20
2019-04-27T04:07:14.833Z,32.58
2019-04-27T04:07:53.451Z,28.98
2019-04-27T04:08:33.287Z,35.03
2019-04-27T04:09:11.703Z,30.67
2019-04-27T04:09:50.307Z,31.48
2019-04-27T04:10:29.609Z,28.42
2019-04-27T04:11:14.670Z,34.90
2019-04-27T04:12:02.232Z,29.18
2019-04-27T04:12:56.451Z,32.25
2019-04-27T04:13:39.654Z,33.55
2019-04-27T04:14:20.242Z,32.80
2019-04-27T04:14:59.813Z,35.23
2019-04-27T04:15:56.071Z,33.13
2019-04-27T04:16:40.308Z,32.90
2019-04-27T04:17:20.371Z,32.83
2019-04-27T04:17:59.454Z,29.87
2019-04-27T04:18:54.875Z,33.07
2019-04-27T04:19:48.001Z,32.35
2019-04-27T04:20:14.543Z,35.17
2019-04-27T04:20:52.753Z,32.08
2019-04-27T04:21:30.602Z,38.95
2019-04-27T04:22:10.272Z,38.30
2019-04-27T04:22:51.341Z,32.23
2019-04-27T04:23:25.699Z,29.40
2019-04-27T04:24:03.824Z,30.30
2019-04-27T04:24:41.013Z,37.30
2019-04-27T04:25:21.006Z,37.53
2019-04-27T04:25:59.819Z,35.48
2019-04-27T04:26:39.899Z,34.77
2019-04-27T04:27:16.309Z,41.05
2019-04-27T04:27:54.007Z,31.30
2019-04-27T04:28:31.475Z,31.68
2019-04-27T04:29:10.368Z,36.42
2019-04-27T04:29:49.285Z,35.97
2019-04-27T04:30:26.932Z,34.90
2019-04-27T04:31:05.438Z,32.23
2019-04-27T04:31:43.758Z,29.52
2019-04-27T04:32:22.010Z,30.77
2019-04-27T04:33:00.058Z,33.48
2019-04-27T04:33:40.169Z,32.35
2019-04-27T04:34:19.573Z,36.77
2019-04-27T04:35:07.459Z,29.93
2019-04-27T04:35:45.046Z,36.05
2019-04-27T04:36:22.456Z,35.77
2019-04-27T04:37:00.696Z,32.37
2019-04-27T04:37:39.444Z,29.90
2019-04-27T04:38:20.321Z,34.93
2019-04-27T04:39:00.725Z,35.20
2019-04-27T04:39:40.341Z,33.27
2019-04-27T04:40:19.737Z,33.98
2019-04-27T04:41:03.306Z,37.57
2019-04-27T04:41:47.484Z,32.47
2019-04-27T04:42:34.754Z,30.05
2019-04-27T04:43:24.647Z,30.90
2019-04-27T04:44:12.139Z,34.05
2019-04-27T04:44:56.890Z,31.52
2019-04-27T04:45:45.014Z,30.45
2019-04-27T04:46:40.079Z,32.57
2019-04-27T04:47:41.759Z,28.92
2019-04-27T04:48:20.199Z,33.53
2019-04-27T04:49:00.041Z,31.40
2019-04-27T04:49:39.590Z,26.30
2019-04-27T04:50:16.113Z,29.70
2019-04-27T04:50:53.642Z,28.00
2019-04-27T04:51:31.519Z,25.30
2019-04-27T04:52:09.659Z,25.47
2019-04-27T04:52:47.003Z,30.00
2019-04-27T04:53:29.215Z,29.87
2019-04-27T04:54:04.437Z,31.70
2019-04-27T04:54:43.647Z,30.08
2019-04-27T04:55:20.778Z,32.40
2019-04-27T04:56:00.127Z,29.90
2019-04-27T04:56:39.260Z,29.67
2019-04-27T04:57:16.530Z,25.33
2019-04-27T04:57:54.106Z,28.30
2019-04-27T04:58:31.390Z,33.33
2019-04-27T04:59:10.078Z,30.77
2019-04-27T04:59:49.375Z,27.00
2019-04-27T05:00:30.115Z,30.47
2019-04-27T05:01:09.855Z,34.07
2019-04-27T05:01:49.723Z,31.70
2019-04-27T05:02:29.330Z,31.20
2019-04-27T05:03:09.178Z,27.00
2019-04-27T05:03:46.693Z,32.00
2019-04-27T05:04:26.202Z,35.20
2019-04-27T05:05:03.162Z,29.10
2019-04-27T05:05:41.365Z,23.10
2019-04-27T05:06:19.098Z,28.47
2019-04-27T05:06:59.127Z,25.20
2019-04-27T05:07:35.582Z,28.53
2019-04-27T05:08:13.120Z,27.43
2019-04-27T05:08:51.370Z,23.97
2019-04-27T05:09:29.556Z,26.20
2019-04-27T05:10:09.057Z,29.13
2019-04-27T05:10:46.456Z,25.00
2019-04-27T05:11:29.902Z,21.13
2019-04-27T05:12:09.662Z,20.80
2019-04-27T05:12:48.634Z,24.10
2019-04-27T05:13:30.145Z,23.83
2019-04-27T05:14:07.326Z,21.53
2019-04-27T05:14:44.195Z,21.33
2019-04-27T05:15:21.462Z,16.43
2019-04-27T05:15:59.072Z,20.23
2019-04-27T05:16:36.010Z,20.07
2019-04-27T05:17:13.486Z,21.00
2019-04-27T05:17:51.274Z,17.90
2019-04-27T05:18:29.296Z,18.20
2019-04-27T05:19:06.737Z,21.07
2019-04-27T05:19:44.752Z,17.90
2019-04-27T05:20:55.694Z,18.20
2019-04-27T05:21:34.853Z,17.05
2019-04-27T05:22:12.286Z,16.53
2019-04-27T05:22:49.456Z,16.33
2019-04-27T05:23:30.048Z,15.13
2019-04-27T05:24:09.208Z,18.90
2019-04-27T05:24:49.321Z,15.57
2019-04-27T05:25:30.126Z,17.27
2019-04-27T05:26:09.101Z,14.03
2019-04-27T05:26:46.427Z,20.80
2019-04-27T05:27:23.590Z,17.07
2019-04-27T05:28:00.711Z,17.67
2019-04-27T05:28:38.402Z,18.70
2019-04-27T05:29:18.936Z,19.50
2019-04-27T05:29:57.167Z,21.03
2019-04-27T05:30:34.370Z,14.47
2019-04-27T05:31:12.170Z,18.23
2019-04-27T05:31:51.222Z,18.55
2019-04-27T05:32:29.173Z,17.70
2019-04-27T05:33:25.874Z,16.30
2019-04-27T05:34:03.169Z,15.73
2019-04-27T05:34:40.378Z,20.50
2019-04-27T05:35:19.431Z,15.10
2019-04-27T05:35:56.842Z,16.27
2019-04-27T05:36:34.524Z,14.85
2019-04-27T05:37:12.104Z,22.50
2019-04-27T05:37:52.352Z,12.73
2019-04-27T05:38:29.810Z,14.00
2019-04-27T05:39:09.648Z,16.47
2019-04-27T05:39:49.601Z,11.43
2019-04-27T05:40:29.129Z,12.50
2019-04-27T05:41:06.119Z,16.63
2019-04-27T05:41:43.658Z,21.03
2019-04-27T05:42:21.686Z,12.05
2019-04-27T05:42:58.858Z,12.87
2019-04-27T05:43:45.026Z,11.87
2019-04-27T05:44:48.969Z,11.70
2019-04-27T05:46:01.490Z,12.60
2019-04-27T05:46:59.121Z,15.80
2019-04-27T05:47:48.514Z,11.07
2019-04-27T05:48:27.675Z,18.43
2019-04-27T05:49:06.295Z,21.42
2019-04-27T05:49:45.958Z,16.43
2019-04-27T05:50:35.475Z,15.37
2019-04-27T05:51:02.988Z,16.13
2019-04-27T05:51:41.971Z,17.57
2019-04-27T05:52:29.793Z,15.73
2019-04-27T05:53:08.671Z,14.63
2019-04-27T05:53:46.401Z,19.63
2019-04-27T05:54:24.033Z,16.13
2019-04-27T05:55:01.660Z,13.68
2019-04-27T05:55:39.329Z,18.80
2019-04-27T05:56:17.131Z,16.10
2019-04-27T05:56:56.958Z,10.30
2019-04-27T05:57:33.953Z,15.77
2019-04-27T05:58:11.718Z,12.78
2019-04-27T05:58:51.255Z,15.18
2019-04-27T05:59:29.814Z,24.60
2019-04-27T06:00:09.284Z,12.83
2019-04-27T06:00:49.558Z,17.10
2019-04-27T06:01:26.988Z,12.77
2019-04-27T06:02:04.512Z,16.37
2019-04-27T06:02:42.484Z,19.00
2019-04-27T06:03:21.005Z,15.73
2019-04-27T06:04:00.513Z,15.83
2019-04-27T06:04:39.057Z,14.80
2019-04-27T06:05:18.863Z,14.23
2019-04-27T06:05:55.794Z,17.57
2019-04-27T06:06:33.261Z,16.80
2019-04-27T06:07:10.055Z,16.37
2019-04-27T06:07:48.759Z,18.00
2019-04-27T06:08:26.676Z,17.57
2019-04-27T06:09:06.233Z,18.53
2019-04-27T06:09:43.730Z,19.05
2019-04-27T06:10:21.314Z,16.23
2019-04-27T06:10:59.255Z,19.13
2019-04-27T06:11:36.810Z,18.83
2019-04-27T06:12:14.576Z,17.85
2019-04-27T06:12:52.163Z,17.77
2019-04-27T06:13:30.996Z,24.50
2019-04-27T06:14:09.648Z,22.40
2019-04-27T06:14:49.301Z,18.30
2019-04-27T06:15:26.537Z,16.70
2019-04-27T06:16:06.458Z,26.90
2019-04-27T06:16:44.034Z,14.67
2019-04-27T06:17:21.678Z,18.23
2019-04-27T06:17:59.675Z,16.00
2019-04-27T06:18:41.260Z,14.37
2019-04-27T06:19:19.373Z,18.40
2019-04-27T06:19:56.628Z,18.23
2019-04-27T06:20:34.295Z,13.83
2019-04-27T06:21:13.409Z,17.17
2019-04-27T06:21:50.809Z,17.07
2019-04-27T06:22:28.981Z,16.77
2019-04-27T06:23:06.149Z,16.87
2019-04-27T06:23:43.858Z,15.33
2019-04-27T06:24:21.422Z,15.33
2019-04-27T06:25:00.198Z,14.47
2019-04-27T06:25:39.308Z,16.00
2019-04-27T06:26:20.030Z,17.13
2019-04-27T06:26:57.190Z,16.57
2019-04-27T06:27:34.643Z,18.95
2019-04-27T06:28:12.346Z,18.30
2019-04-27T06:28:50.495Z,13.20
2019-04-27T06:29:30.807Z,15.37
2019-04-27T06:30:09.766Z,16.20
2019-04-27T06:30:49.140Z,16.70
2019-04-27T06:31:26.622Z,12.77
2019-04-27T06:32:03.875Z,14.40
2019-04-27T06:32:42.529Z,16.80
2019-04-27T06:33:30.153Z,12.83
2019-04-27T06:34:05.716Z,15.13
2019-04-27T06:34:43.489Z,15.57
2019-04-27T06:35:24.430Z,21.10
2019-04-27T06:36:02.427Z,13.60
2019-04-27T06:36:43.429Z,16.27
2019-04-27T06:37:21.615Z,15.73
2019-04-27T06:37:58.985Z,13.47
2019-04-27T06:38:36.521Z,18.33
2019-04-27T06:39:13.690Z,13.80
2019-04-27T06:39:54.287Z,15.97
2019-04-27T06:40:31.604Z,15.63
2019-04-27T06:41:10.024Z,14.20
2019-04-27T06:41:49.086Z,14.40
2019-04-27T06:42:29.831Z,15.23
2019-04-27T06:43:08.610Z,15.97
2019-04-27T06:43:49.513Z,15.73
2019-04-27T06:44:29.761Z,19.17
2019-04-27T06:45:09.936Z,11.50
2019-04-27T06:45:48.670Z,15.00
2019-04-27T06:46:26.537Z,10.90
2019-04-27T06:47:04.556Z,12.03
2019-04-27T06:47:42.370Z,13.13
2019-04-27T06:48:21.857Z,12.13
2019-04-27T06:48:59.479Z,10.70
2019-04-27T06:49:37.177Z,12.30
2019-04-27T06:50:20.062Z,11.47
2019-04-27T06:51:03.637Z,9.97
2019-04-27T06:51:36.895Z,12.53
2019-04-27T06:52:14.444Z,13.27
2019-04-27T06:52:52.225Z,11.93
2019-04-27T06:53:29.637Z,12.37
2019-04-27T06:54:10.733Z,11.97
2019-04-27T06:54:48.657Z,12.20
2019-04-27T06:55:29.112Z,11.03
2019-04-27T06:56:06.704Z,12.40
2019-04-27T06:56:45.343Z,13.50
2019-04-27T06:57:22.820Z,13.10
2019-04-27T06:58:00.259Z,12.87
2019-04-27T06:58:40.768Z,12.70
2019-04-27T06:59:18.613Z,16.67
2019-04-27T06:59:56.181Z,12.20
2019-04-27T07:00:41.221Z,10.08
2019-04-27T07:01:20.512Z,10.97
2019-04-27T07:02:00.811Z,10.53
2019-04-27T07:02:39.218Z,9.40
2019-04-27T07:03:18.838Z,11.40
2019-04-27T07:03:56.173Z,9.80
2019-04-27T07:04:33.304Z,9.80
2019-04-27T07:05:12.213Z,9.70
2019-04-27T07:05:52.265Z,9.77
2019-04-27T07:06:32.072Z,11.93
2019-04-27T07:07:09.845Z,12.00
2019-04-27T07:07:48.979Z,7.85
2019-04-27T07:08:28.666Z,7.80
2019-04-27T07:09:09.613Z,8.20
2019-04-27T07:09:49.200Z,9.37
2019-04-27T07:10:26.349Z,9.10
2019-04-27T07:11:03.886Z,10.53
2019-04-27T07:11:41.710Z,13.97
2019-04-27T07:12:23.985Z,13.43
2019-04-27T07:13:01.657Z,8.47
2019-04-27T07:13:39.099Z,11.00
2019-04-27T07:14:16.657Z,10.17
2019-04-27T07:14:55.105Z,9.60
2019-04-27T07:15:32.414Z,9.73
2019-04-27T07:16:10.333Z,9.53
2019-04-27T07:16:48.835Z,7.73
2019-04-27T07:17:26.690Z,11.53
2019-04-27T07:18:04.440Z,7.07
2019-04-27T07:18:41.321Z,10.33
2019-04-27T07:19:19.060Z,8.13
2019-04-27T07:19:56.501Z,9.93
2019-04-27T07:20:35.622Z,7.53
2019-04-27T07:21:18.928Z,5.53
2019-04-27T07:21:53.347Z,11.67
2019-04-27T07:22:30.947Z,6.90
2019-04-27T07:23:09.500Z,6.50
2019-04-27T07:23:59.442Z,12.33
2019-04-27T07:24:38.771Z,9.60
2019-04-27T07:25:16.422Z,7.83
2019-04-27T07:25:54.087Z,9.43
2019-04-27T07:26:32.329Z,6.67
2019-04-27T07:27:10.057Z,8.63
2019-04-27T07:27:50.330Z,10.13
2019-04-27T07:28:28.654Z,12.97
2019-04-27T07:29:06.227Z,6.47
2019-04-27T07:29:44.837Z,6.40
2019-04-27T07:30:23.726Z,5.53
2019-04-27T07:31:01.096Z,8.20
2019-04-27T07:31:40.016Z,5.13
2019-04-27T07:32:19.298Z,7.50
2019-04-27T07:32:58.861Z,6.00
2019-04-27T07:33:35.814Z,7.97
2019-04-27T07:34:13.507Z,7.90
2019-04-27T07:34:51.266Z,11.43
2019-04-27T07:35:29.619Z,8.23
2019-04-27T07:36:08.510Z,7.83
2019-04-27T07:36:49.092Z,7.17
2019-04-27T07:37:27.165Z,12.03
2019-04-27T07:38:04.650Z,6.00
2019-04-27T07:38:42.112Z,7.23
2019-04-27T07:39:19.494Z,7.27
2019-04-27T07:39:59.054Z,11.90
2019-04-27T07:40:40.023Z,8.10
2019-04-27T07:41:19.473Z,8.37
2019-04-27T07:41:58.493Z,9.07
2019-04-27T07:42:35.504Z,9.23
2019-04-27T07:43:24.405Z,6.50
2019-04-27T07:44:10.501Z,9.33
2019-04-27T07:44:51.743Z,8.53
2019-04-27T07:45:34.531Z,4.37
2019-04-27T07:46:12.313Z,6.57
2019-04-27T07:47:09.728Z,9.03
2019-04-27T07:47:49.381Z,4.87
2019-04-27T07:48:26.559Z,7.73
2019-04-27T07:49:04.454Z,10.03
2019-04-27T07:49:43.761Z,6.50
2019-04-27T07:50:21.149Z,5.47
2019-04-27T07:50:59.833Z,7.00
2019-04-27T07:51:36.989Z,9.73
2019-04-27T07:52:14.364Z,6.83
2019-04-27T07:52:53.841Z,7.10
2019-04-27T07:53:35.643Z,9.10
2019-04-27T07:54:13.054Z,8.90
2019-04-27T07:54:50.548Z,7.67
2019-04-27T07:55:28.773Z,6.03
2019-04-27T07:56:06.441Z,8.00
2019-04-27T07:56:43.873Z,8.17
2019-04-27T07:57:21.491Z,6.20
2019-04-27T07:58:04.869Z,9.30
2019-04-27T07:58:39.615Z,7.20
2019-04-27T07:59:16.874Z,10.53
2019-04-27T07:59:54.327Z,7.40
2019-04-27T08:00:31.603Z,5.97
2019-04-27T08:01:09.275Z,8.20
2019-04-27T08:01:46.167Z,8.80
2019-04-27T08:02:24.050Z,5.20
2019-04-27T08:03:01.207Z,7.47
2019-04-27T08:03:40.976Z,5.97
2019-04-27T08:04:18.843Z,7.47
2019-04-27T08:04:56.103Z,7.10
2019-04-27T08:05:36.602Z,8.67
2019-04-27T08:06:13.602Z,5.83
2019-04-27T08:06:51.392Z,5.20
2019-04-27T08:07:29.444Z,7.03
2019-04-27T08:08:06.662Z,14.70
2019-04-27T08:08:44.291Z,6.20
2019-04-27T08:09:22.227Z,4.60
2019-04-27T08:10:01.688Z,6.20
2019-04-27T08:10:39.213Z,5.30
2019-04-27T08:11:19.138Z,5.80
2019-04-27T08:11:55.973Z,5.27
2019-04-27T08:12:33.577Z,5.23
2019-04-27T08:13:10.948Z,5.00
2019-04-27T08:13:49.774Z,8.10
2019-04-27T08:14:28.503Z,3.63
2019-04-27T08:15:06.271Z,6.57
2019-04-27T08:15:43.532Z,8.30
2019-04-27T08:16:23.713Z,5.80
2019-04-27T08:17:01.637Z,7.80
2019-04-27T08:17:42.419Z,6.10
2019-04-27T08:18:18.943Z,4.93
2019-04-27T08:18:59.810Z,4.90
2019-04-27T08:19:37.227Z,5.50
2019-04-27T08:20:14.894Z,5.97
2019-04-27T08:20:52.345Z,8.40
2019-04-27T08:21:42.882Z,5.33
2019-04-27T08:22:13.748Z,5.87
2019-04-27T08:22:53.766Z,8.83
2019-04-27T08:23:31.165Z,7.90
2019-04-27T08:24:09.573Z,6.87
2019-04-27T08:24:49.850Z,6.13
2019-04-27T08:25:28.736Z,8.37
2019-04-27T08:26:09.673Z,8.40
2019-04-27T08:27:01.134Z,8.17
2019-04-27T08:28:05.985Z,8.80
2019-04-27T08:28:58.636Z,8.47
2019-04-27T08:29:54.589Z,8.40
2019-04-27T08:30:40.407Z,6.60
2019-04-27T08:31:22.206Z,6.90
2019-04-27T08:32:04.888Z,6.07
2019-04-27T08:32:44.576Z,7.20
2019-04-27T08:33:21.713Z,9.10
2019-04-27T08:34:00.131Z,7.43
2019-04-27T08:34:39.712Z,8.77
2019-04-27T08:35:17.195Z,7.30
2019-04-27T08:35:54.617Z,7.33
2019-04-27T08:36:32.118Z,6.70
2019-04-27T08:37:09.437Z,7.77
2019-04-27T08:37:46.415Z,6.97
2019-04-27T08:38:23.574Z,12.97
2019-04-27T08:39:03.397Z,10.43
2019-04-27T08:39:41.441Z,7.13
2019-04-27T08:40:19.693Z,8.43
2019-04-27T08:40:59.783Z,9.57
2019-04-27T08:41:37.009Z,8.90
2019-04-27T08:42:14.808Z,6.23
2019-04-27T08:42:51.730Z,10.00
2019-04-27T08:43:29.359Z,12.03
2019-04-27T08:44:06.945Z,9.63
2019-04-27T08:44:49.633Z,8.67
2019-04-27T08:45:29.265Z,10.67
2019-04-27T08:46:08.790Z,8.20
2019-04-27T08:46:46.485Z,7.67
2019-04-27T08:47:24.250Z,10.10
2019-04-27T08:48:02.646Z,8.47
2019-04-27T08:48:41.305Z,11.97
2019-04-27T08:49:18.809Z,9.77